Time;durP1;ratioP1;P1;durP2;ratioP2;P2;SDS_P1;SDS_P2;PMS_P1;PMS_P2;Temp;Humidity;BMP_temperature;BMP_pressure;BME280_temperature;BME280_humidity;BME280_pressure;Samples;Min_cycle;Max_cycle;Signal;HPM_P1;HPM_P2
2022/05/09 00:00:07;;;;;;;15.32;5.82;;;8.10;87.50;;;;;;5009049;28;20037;-75
2022/05/09 00:02:33;;;;;;;15.05;6.20;;;8.10;87.50;;;;;;4994273;28;20022;-73
2022/05/09 00:04:59;;;;;;;13.85;5.95;;;7.90;88.40;;;;;;5036972;28;20065;-74
2022/05/09 00:07:25;;;;;;;11.27;5.50;;;7.90;88.50;;;;;;5005088;28;20068;-75
2022/05/09 00:09:50;;;;;;;14.68;5.70;;;7.80;88.20;;;;;;5039165;28;20468;-73
2022/05/09 00:12:16;;;;;;;13.70;6.65;;;7.80;88.40;;;;;;5038980;28;20410;-75
2022/05/09 00:14:42;;;;;;;10.65;5.25;;;7.60;89.10;;;;;;5034580;28;20045;-74
2022/05/09 00:17:08;;;;;;;15.65;6.28;;;7.60;89.50;;;;;;5007627;28;20087;-73
2022/05/09 00:19:33;;;;;;;14.32;5.85;;;7.50;90.00;;;;;;5000879;28;20536;-73
2022/05/09 00:21:59;;;;;;;13.55;5.82;;;7.40;90.10;;;;;;5004476;28;20113;-73
2022/05/09 00:24:25;;;;;;;13.18;4.93;;;7.40;90.30;;;;;;5007642;28;20037;-73
2022/05/09 00:26:51;;;;;;;15.40;5.47;;;7.30;90.50;;;;;;5008444;28;20036;-73
2022/05/09 00:29:20;;;;;;;11.40;5.43;;;7.30;90.50;;;;;;5007413;28;20096;-74
2022/05/09 00:31:48;;;;;;;12.23;5.75;;;7.30;90.50;;;;;;5006077;28;20034;-74
2022/05/09 00:34:17;;;;;;;16.65;6.22;;;7.30;90.40;;;;;;5007828;28;20052;-73
2022/05/09 00:36:44;;;;;;;12.15;5.28;;;7.30;90.60;;;;;;5031073;28;20034;-74
2022/05/09 00:39:09;;;;;;;13.93;5.47;;;7.10;90.70;;;;;;5035225;28;20037;-74
2022/05/09 00:41:37;;;;;;;10.93;5.00;;;7.20;90.70;;;;;;5007532;28;20029;-73
2022/05/09 00:44:27;;;;;;;11.90;4.72;;;7.20;90.40;;;;;;5002268;28;20037;-72
2022/05/09 00:46:54;;;;;;;;;;;7.30;90.40;;;;;;4990825;28;20033;-74
2022/05/09 00:49:45;;;;;;;10.60;5.65;;;7.20;90.50;;;;;;5006672;28;19965;-73
2022/05/09 00:52:24;;;;;;;15.60;5.90;;;7.10;90.60;;;;;;5004771;28;20145;-73
2022/05/09 00:54:52;;;;;;;12.48;5.57;;;7.10;90.60;;;;;;4995743;28;20034;-74
2022/05/09 00:57:21;;;;;;;14.35;5.95;;;7.10;90.70;;;;;;5017383;28;20077;-73
2022/05/09 00:59:48;;;;;;;14.57;6.57;;;7.10;90.70;;;;;;4998447;28;20041;-75
2022/05/09 01:02:15;;;;;;;10.75;5.85;;;7.00;91.00;;;;;;5006550;28;20068;-73
2022/05/09 01:04:54;;;;;;;11.63;5.88;;;7.00;91.00;;;;;;5021131;28;20045;-73
2022/05/09 01:07:22;;;;;;;16.38;6.22;;;7.10;91.30;;;;;;5020566;28;20025;-74
2022/05/09 01:09:48;;;;;;;12.90;5.82;;;7.10;90.80;;;;;;5004905;28;20480;-73
2022/05/09 01:12:17;;;;;;;13.73;6.30;;;7.00;90.80;;;;;;5008788;28;20130;-73
2022/05/09 01:14:43;;;;;;;16.25;6.40;;;6.90;91.10;;;;;;5019897;28;20037;-74
2022/05/09 01:17:09;;;;;;;12.27;6.95;;;6.90;90.90;;;;;;5035811;28;20068;-73
2022/05/09 01:19:38;;;;;;;15.48;6.72;;;6.90;91.10;;;;;;5026458;28;20116;-73
2022/05/09 01:22:20;;;;;;;15.23;7.45;;;6.80;91.10;;;;;;5006091;28;20048;-73
2022/05/09 01:24:46;;;;;;;11.95;6.22;;;6.90;91.20;;;;;;5012313;28;20030;-73
2022/05/09 01:27:11;;;;;;;12.93;6.53;;;6.90;91.10;;;;;;5037392;28;20382;-74
2022/05/09 01:30:01;;;;;;;12.63;6.20;;;6.90;91.00;;;;;;5007727;28;20034;-75
2022/05/09 01:32:34;;;;;;;10.57;5.53;;;6.90;90.80;;;;;;4999915;28;20037;-74
2022/05/09 01:35:07;;;;;;;13.60;6.22;;;6.80;90.70;;;;;;5007013;28;20053;-74
2022/05/09 01:37:36;;;;;;;12.18;6.05;;;6.70;90.70;;;;;;5006891;28;20045;-74
2022/05/09 01:40:03;;;;;;;11.35;5.93;;;6.70;90.90;;;;;;5018702;28;20397;-74
2022/05/09 01:42:29;;;;;;;12.68;5.68;;;6.60;91.00;;;;;;5007537;28;20030;-74
2022/05/09 01:44:55;;;;;;;13.70;6.82;;;6.40;91.10;;;;;;5006120;28;20068;-74
2022/05/09 01:50:05;;;;;;;13.25;6.05;;;6.40;91.50;;;;;;5003572;28;20065;-74
2022/05/09 01:52:31;;;;;;;10.95;5.90;;;6.40;91.50;;;;;;5004632;28;20143;-74
2022/05/09 01:54:56;;;;;;;14.32;7.15;;;6.40;91.20;;;;;;5004077;28;21838;-73
2022/05/09 01:57:22;;;;;;;12.43;6.40;;;6.40;91.50;;;;;;4993320;28;20687;-74
2022/05/09 01:59:48;;;;;;;14.48;6.32;;;6.40;91.70;;;;;;5005360;28;20030;-73
2022/05/09 02:02:19;;;;;;;13.20;5.95;;;6.40;91.80;;;;;;5007448;28;20108;-73
2022/05/09 02:04:46;;;;;;;9.93;5.65;;;6.50;91.50;;;;;;5001133;28;20034;-73
2022/05/09 02:07:14;;;;;;;12.38;6.00;;;6.50;90.80;;;;;;5003118;28;20045;-73
2022/05/09 02:09:47;;;;;;;12.05;5.88;;;6.50;90.80;;;;;;5007269;28;20096;-74
2022/05/09 02:12:14;;;;;;;14.75;6.05;;;6.50;90.80;;;;;;5036824;28;20030;-73
2022/05/09 02:14:41;;;;;;;12.73;5.65;;;6.50;90.80;;;;;;5007738;28;20041;-73
2022/05/09 02:17:08;;;;;;;11.73;6.00;;;6.50;90.70;;;;;;4993653;28;20031;-73
2022/05/09 02:19:34;;;;;;;13.07;6.15;;;6.50;90.90;;;;;;5008303;28;20112;-74
2022/05/09 02:22:01;;;;;;;13.45;6.32;;;6.50;91.00;;;;;;5003668;28;20041;-73
2022/05/09 02:24:28;;;;;;;12.70;5.93;;;6.50;91.10;;;;;;5004222;28;20468;-73
2022/05/09 02:26:54;;;;;;;15.02;6.28;;;6.50;91.10;;;;;;5020174;28;20030;-73
2022/05/09 02:29:20;;;;;;;11.48;5.90;;;6.40;91.10;;;;;;5007723;28;20502;-73
2022/05/09 02:31:46;;;;;;;12.55;6.80;;;6.40;91.30;;;;;;5006248;28;20026;-73
2022/05/09 02:34:13;;;;;;;12.95;6.40;;;6.40;91.60;;;;;;5007786;28;20030;-73
2022/05/09 02:36:39;;;;;;;12.70;6.15;;;6.40;91.40;;;;;;4999098;28;20025;-73
2022/05/09 02:39:05;;;;;;;13.20;5.70;;;6.30;91.10;;;;;;5007104;28;20034;-73
2022/05/09 02:41:30;;;;;;;13.48;6.05;;;6.30;91.00;;;;;;5006060;28;20026;-72
2022/05/09 02:43:56;;;;;;;9.88;6.47;;;6.30;90.80;;;;;;5007048;28;20060;-73
2022/05/09 02:46:22;;;;;;;13.23;5.63;;;6.30;90.70;;;;;;4998871;28;20030;-72
2022/05/09 02:48:48;;;;;;;12.27;6.22;;;6.20;90.80;;;;;;4991147;28;20042;-73
2022/05/09 02:51:14;;;;;;;12.65;5.75;;;6.20;90.70;;;;;;5006864;28;20034;-74
2022/05/09 02:53:40;;;;;;;13.18;6.80;;;6.10;90.70;;;;;;5008588;28;20456;-72
2022/05/09 02:56:07;;;;;;;17.27;7.30;;;6.00;90.90;;;;;;5004983;28;20555;-72
2022/05/09 02:58:34;;;;;;;15.18;7.47;;;5.90;91.20;;;;;;5009712;28;20030;-73
2022/05/09 03:00:59;;;;;;;16.23;7.07;;;5.80;91.90;;;;;;5005192;28;20094;-73
2022/05/09 03:06:10;;;;;;;14.25;7.25;;;5.80;92.40;;;;;;5010069;28;20142;-72
2022/05/09 03:08:36;;;;;;;12.00;6.68;;;5.80;92.30;;;;;;5003376;28;20030;-72
2022/05/09 03:11:02;;;;;;;15.90;7.70;;;5.80;92.30;;;;;;5009130;28;20028;-72
2022/05/09 03:13:27;;;;;;;13.05;7.32;;;5.90;92.20;;;;;;5009645;28;20068;-73
2022/05/09 03:15:53;;;;;;;16.83;7.47;;;6.00;91.90;;;;;;5009147;28;20042;-73
2022/05/09 03:18:22;;;;;;;14.85;7.25;;;5.90;91.70;;;;;;5017565;28;20032;-72
2022/05/09 03:20:48;;;;;;;13.00;7.43;;;5.80;92.00;;;;;;5004309;28;20026;-73
2022/05/09 03:23:14;;;;;;;14.25;7.03;;;5.80;92.10;;;;;;5005411;28;20037;-74
2022/05/09 03:25:40;;;;;;;12.35;6.80;;;5.80;92.20;;;;;;5000863;28;20034;-72
2022/05/09 03:28:12;;;;;;;15.00;7.20;;;5.80;92.00;;;;;;5001632;28;20030;-73
2022/05/09 03:30:38;;;;;;;14.90;7.55;;;5.80;92.20;;;;;;4996388;28;20034;-74
2022/05/09 03:33:04;;;;;;;15.70;8.23;;;5.90;92.30;;;;;;5037428;28;20849;-73
2022/05/09 03:35:30;;;;;;;15.13;8.32;;;5.90;92.40;;;;;;5007048;28;20041;-73
2022/05/09 03:37:56;;;;;;;12.05;7.28;;;6.00;92.30;;;;;;5006356;28;20026;-74
2022/05/09 03:40:22;;;;;;;14.70;8.15;;;6.00;92.20;;;;;;5004679;28;20030;-74
2022/05/09 03:42:48;;;;;;;14.75;8.75;;;6.00;92.10;;;;;;5009479;28;20392;-74
2022/05/09 03:45:14;;;;;;;14.30;8.15;;;5.90;92.00;;;;;;5007985;28;20105;-74
2022/05/09 03:47:41;;;;;;;19.75;7.90;;;5.90;92.10;;;;;;5023291;28;20130;-74
2022/05/09 03:50:08;;;;;;;14.75;8.07;;;5.80;92.10;;;;;;5006231;28;20104;-75
2022/05/09 03:52:34;;;;;;;15.63;8.90;;;5.70;92.40;;;;;;5023727;28;20035;-74
2022/05/09 03:55:00;;;;;;;16.42;8.27;;;5.60;92.50;;;;;;5005813;28;20119;-74
2022/05/09 03:57:25;;;;;;;15.00;8.43;;;5.60;92.70;;;;;;5007406;28;20149;-75
2022/05/09 03:59:51;;;;;;;16.95;8.85;;;5.60;93.00;;;;;;5006013;28;20053;-74
2022/05/09 04:02:17;;;;;;;14.43;8.25;;;5.60;93.00;;;;;;5004448;28;20364;-74
2022/05/09 04:04:43;;;;;;;14.57;8.13;;;5.60;93.10;;;;;;5006362;28;20046;-74
2022/05/09 04:07:08;;;;;;;15.55;7.63;;;5.50;92.70;;;;;;5009177;28;20116;-74
2022/05/09 04:09:36;;;;;;;16.02;8.30;;;5.50;92.60;;;;;;5003826;28;20042;-75
2022/05/09 04:12:02;;;;;;;15.73;7.78;;;5.40;92.80;;;;;;5006048;28;20029;-75
2022/05/09 04:17:14;;;;;;;15.52;8.95;;;5.30;92.90;;;;;;4993473;28;20049;-74
2022/05/09 04:19:39;;;;;;;14.30;7.90;;;5.30;93.00;;;;;;4999293;28;20037;-74
2022/05/09 04:22:06;;;;;;;16.42;7.78;;;5.30;93.00;;;;;;5000657;28;20033;-75
2022/05/09 04:24:33;;;;;;;14.93;7.38;;;5.30;93.00;;;;;;5001743;28;20040;-74
2022/05/09 04:26:59;;;;;;;15.07;8.98;;;5.30;92.60;;;;;;5021572;28;20556;-74
2022/05/09 04:29:26;;;;;;;15.18;8.20;;;5.30;93.10;;;;;;5002276;28;20030;-74
2022/05/09 04:31:52;;;;;;;16.27;8.32;;;5.30;93.20;;;;;;5038853;28;20105;-74
2022/05/09 04:34:18;;;;;;;12.48;7.00;;;5.40;93.00;;;;;;5008355;28;20142;-74
2022/05/09 04:36:43;;;;;;;11.35;7.00;;;5.50;92.70;;;;;;5005102;28;20080;-74
2022/05/09 04:39:09;;;;;;;11.88;7.45;;;5.50;92.60;;;;;;5001252;28;20461;-73
2022/05/09 04:41:36;;;;;;;14.57;8.00;;;5.60;92.40;;;;;;5006245;28;20037;-74
2022/05/09 04:44:05;;;;;;;13.23;7.57;;;5.60;91.90;;;;;;5004003;28;20026;-74
2022/05/09 04:46:34;;;;;;;13.07;7.68;;;5.60;92.00;;;;;;5002244;28;20029;-74
2022/05/09 04:49:00;;;;;;;14.30;7.40;;;5.50;92.00;;;;;;4999581;28;20132;-74
2022/05/09 04:51:26;;;;;;;12.60;7.80;;;5.50;92.30;;;;;;4998045;28;20631;-74
2022/05/09 04:53:52;;;;;;;14.57;7.80;;;5.50;92.10;;;;;;5000495;28;20559;-74
2022/05/09 04:56:19;;;;;;;15.80;8.15;;;5.50;92.10;;;;;;5005678;28;20112;-74
2022/05/09 04:58:44;;;;;;;13.02;7.25;;;5.50;92.00;;;;;;4995577;28;20053;-74
2022/05/09 05:01:10;;;;;;;14.00;6.85;;;5.50;92.10;;;;;;4996861;28;20061;-74
2022/05/09 05:03:37;;;;;;;14.30;7.60;;;5.50;92.20;;;;;;5022942;28;20757;-74
2022/05/09 05:06:04;;;;;;;14.95;6.97;;;5.50;92.20;;;;;;5003376;28;20835;-74
2022/05/09 05:08:33;;;;;;;16.08;7.28;;;5.50;92.30;;;;;;5003939;28;20668;-74
2022/05/09 05:11:00;;;;;;;15.43;7.75;;;5.50;92.30;;;;;;4999339;28;20472;-73
2022/05/09 05:13:26;;;;;;;12.80;7.45;;;5.60;92.40;;;;;;5006702;28;20042;-74
2022/05/09 05:15:57;;;;;;;14.75;8.00;;;5.60;92.30;;;;;;5006564;28;20052;-74
2022/05/09 05:18:25;;;;;;;14.13;8.20;;;5.60;92.40;;;;;;5020975;28;20041;-74
2022/05/09 05:20:52;;;;;;;14.63;7.35;;;5.60;92.50;;;;;;5021970;28;20026;-73
2022/05/09 05:23:18;;;;;;;15.75;8.48;;;5.70;92.60;;;;;;5038816;28;20026;-73
2022/05/09 05:25:45;;;;;;;12.38;7.25;;;5.80;92.70;;;;;;5000660;28;20095;-74
2022/05/09 05:28:12;;;;;;;17.70;8.77;;;5.80;92.80;;;;;;5001991;28;20064;-73
2022/05/09 05:30:39;;;;;;;14.73;8.25;;;5.90;92.90;;;;;;4999387;28;20037;-75
2022/05/09 05:33:05;;;;;;;13.43;7.82;;;5.90;93.00;;;;;;5005731;28;20044;-73
2022/05/09 05:35:31;;;;;;;14.30;8.20;;;6.00;93.00;;;;;;5006395;28;20033;-74
2022/05/09 05:37:57;;;;;;;15.68;8.55;;;6.10;92.90;;;;;;5037228;28;20495;-74
2022/05/09 05:40:23;;;;;;;13.82;7.78;;;6.20;93.00;;;;;;5002104;28;20022;-75
2022/05/09 05:42:49;;;;;;;14.88;8.50;;;6.30;92.80;;;;;;4997438;28;20029;-73
2022/05/09 05:45:17;;;;;;;12.43;8.30;;;6.40;92.60;;;;;;5007620;28;20026;-74
2022/05/09 05:47:43;;;;;;;12.88;7.65;;;6.60;92.50;;;;;;5007278;28;20041;-74
2022/05/09 05:50:11;;;;;;;12.25;7.40;;;6.80;92.30;;;;;;5006533;28;20041;-74
2022/05/09 05:52:37;;;;;;;16.27;7.65;;;6.90;92.00;;;;;;5002641;28;20502;-74
2022/05/09 05:55:04;;;;;;;15.43;7.82;;;7.10;91.90;;;;;;5003374;28;20030;-74
2022/05/09 05:57:32;;;;;;;12.48;7.38;;;7.10;92.10;;;;;;5002448;28;20076;-74
2022/05/09 06:00:04;;;;;;;15.77;7.90;;;7.20;91.80;;;;;;5003990;28;20021;-73
2022/05/09 06:02:31;;;;;;;14.93;7.68;;;7.40;91.80;;;;;;5006072;28;20042;-75
2022/05/09 06:04:57;;;;;;;16.27;7.60;;;7.50;91.70;;;;;;5005919;28;20026;-74
2022/05/09 06:07:23;;;;;;;15.32;6.88;;;7.60;91.60;;;;;;5003266;28;20037;-75
2022/05/09 06:09:50;;;;;;;13.57;8.98;;;7.70;91.10;;;;;;4999674;28;20029;-74
2022/05/09 06:12:19;;;;;;;16.10;8.77;;;7.80;91.50;;;;;;4997175;28;20451;-74
2022/05/09 06:15:24;;;;;;;16.15;9.00;;;7.90;91.30;;;;;;5009889;28;20062;-74
2022/05/09 06:17:33;;;;;;;13.88;8.10;;;8.00;91.00;;;;;;5003194;28;20037;-74
2022/05/09 06:19:58;;;;;;;18.58;8.65;;;8.10;90.90;;;;;;5003624;28;20037;-74
2022/05/09 06:22:24;;;;;;;17.25;9.10;;;8.30;91.10;;;;;;5004551;28;20033;-74
2022/05/09 06:24:57;;;;;;;16.73;8.60;;;8.40;91.10;;;;;;5005276;28;20380;-74
2022/05/09 06:27:22;;;;;;;18.50;10.07;;;8.60;91.30;;;;;;5001242;28;20038;-74
2022/05/09 06:29:48;;;;;;;21.48;10.68;;;8.70;91.30;;;;;;5000071;28;20033;-74
2022/05/09 06:32:14;;;;;;;21.80;10.45;;;8.90;91.30;;;;;;5011451;28;20754;-75
2022/05/09 06:34:39;;;;;;;20.45;10.30;;;9.00;91.30;;;;;;5008783;28;20037;-73
2022/05/09 06:37:05;;;;;;;21.85;10.85;;;9.20;90.50;;;;;;5005542;28;20042;-73
2022/05/09 06:39:31;;;;;;;20.25;11.40;;;9.30;90.50;;;;;;5022689;28;20028;-73
2022/05/09 06:41:56;;;;;;;23.55;12.30;;;9.50;90.60;;;;;;5005313;28;20040;-73
2022/05/09 06:44:22;;;;;;;21.05;11.20;;;9.70;90.50;;;;;;5007408;28;20045;-73
2022/05/09 06:46:47;;;;;;;22.15;11.60;;;9.80;89.90;;;;;;4992883;28;20026;-73
2022/05/09 06:49:13;;;;;;;22.80;12.30;;;10.10;89.40;;;;;;5005633;28;20064;-73
2022/05/09 06:51:39;;;;;;;20.42;11.88;;;10.20;90.30;;;;;;5009765;28;20380;-73
2022/05/09 06:54:05;;;;;;;21.30;12.00;;;10.40;89.30;;;;;;5006668;28;20029;-73
2022/05/09 06:56:31;;;;;;;22.42;11.77;;;10.70;88.90;;;;;;5014407;28;20033;-73
2022/05/09 06:58:57;;;;;;;25.35;11.63;;;10.80;88.90;;;;;;5011068;28;20038;-73
2022/05/09 07:01:22;;;;;;;22.23;11.82;;;11.00;88.00;;;;;;5020687;28;20107;-73
2022/05/09 07:03:48;;;;;;;23.40;11.70;;;11.20;87.70;;;;;;5006440;28;20036;-74
2022/05/09 07:06:15;;;;;;;20.40;11.38;;;11.40;86.10;;;;;;5015786;28;20034;-74
2022/05/09 07:08:42;;;;;;;20.05;11.75;;;11.50;85.70;;;;;;5003365;28;20026;-75
2022/05/09 07:11:08;;;;;;;19.65;10.88;;;11.60;86.00;;;;;;5019097;28;20087;-75
2022/05/09 07:13:34;;;;;;;23.30;11.48;;;11.70;85.40;;;;;;5009983;28;20033;-74
2022/05/09 07:16:00;;;;;;;20.70;10.80;;;11.90;85.00;;;;;;5004142;28;20392;-73
2022/05/09 07:18:28;;;;;;;16.58;9.88;;;12.10;85.10;;;;;;5005921;28;20026;-73
2022/05/09 07:20:55;;;;;;;24.70;11.15;;;12.20;83.90;;;;;;5007856;28;20050;-73
2022/05/09 07:23:21;;;;;;;21.58;10.10;;;12.30;83.40;;;;;;5001182;28;20739;-73
2022/05/09 07:25:50;;;;;;;21.73;10.55;;;12.50;82.90;;;;;;5039113;28;20022;-73
2022/05/09 07:28:19;;;;;;;20.90;11.40;;;12.50;83.10;;;;;;5000676;28;20030;-74
2022/05/09 07:30:45;;;;;;;18.40;10.60;;;12.50;82.90;;;;;;4991065;28;20110;-74
2022/05/09 07:33:13;;;;;;;18.05;11.00;;;12.60;82.70;;;;;;4991450;28;20509;-75
2022/05/09 07:35:38;;;;;;;20.10;10.45;;;12.80;83.70;;;;;;4990327;28;20521;-74
2022/05/09 07:38:04;;;;;;;23.73;11.43;;;12.80;83.00;;;;;;4990958;28;20088;-74
2022/05/09 07:40:29;;;;;;;23.83;10.90;;;13.00;83.30;;;;;;5009838;28;20052;-74
2022/05/09 07:42:56;;;;;;;25.05;11.57;;;13.20;83.10;;;;;;5003490;28;20108;-74
2022/05/09 07:45:22;;;;;;;18.73;10.43;;;13.30;82.60;;;;;;5000361;28;20448;-75
2022/05/09 07:47:47;;;;;;;22.08;12.10;;;13.40;82.60;;;;;;5006284;28;20030;-74
2022/05/09 07:50:15;;;;;;;22.83;10.52;;;13.60;81.90;;;;;;4999915;28;20058;-75
2022/05/09 07:52:42;;;;;;;22.70;10.45;;;13.80;82.40;;;;;;4991168;28;20468;-77
2022/05/09 07:55:12;;;;;;;21.90;11.30;;;14.00;80.70;;;;;;5024945;28;20037;-75
2022/05/09 07:57:38;;;;;;;19.45;11.05;;;14.10;80.80;;;;;;5009729;28;20037;-74
2022/05/09 08:00:05;;;;;;;19.52;11.45;;;14.20;80.60;;;;;;5009518;28;20041;-75
2022/05/09 08:02:32;;;;;;;20.33;9.38;;;14.40;79.90;;;;;;4999226;28;20026;-75
2022/05/09 08:04:58;;;;;;;18.42;9.38;;;14.60;79.50;;;;;;5009868;28;20117;-74
2022/05/09 08:07:24;;;;;;;18.77;7.68;;;14.80;79.00;;;;;;4993594;28;20413;-73
2022/05/09 08:09:49;;;;;;;19.52;8.77;;;15.00;76.90;;;;;;5010151;28;20079;-74
2022/05/09 08:12:15;;;;;;;17.70;8.38;;;15.00;77.50;;;;;;5009999;28;20064;-76
2022/05/09 08:14:41;;;;;;;19.60;8.30;;;15.30;78.40;;;;;;5009900;28;20091;-75
2022/05/09 08:17:09;;;;;;;19.77;7.97;;;15.40;74.80;;;;;;5010180;28;20034;-75
2022/05/09 08:19:37;;;;;;;17.63;7.25;;;15.50;74.60;;;;;;5009092;28;20428;-75
2022/05/09 08:22:04;;;;;;;15.43;7.40;;;15.70;75.40;;;;;;5009751;28;20388;-73
2022/05/09 08:24:30;;;;;;;20.45;8.13;;;15.80;73.80;;;;;;5041387;28;20052;-75
2022/05/09 08:26:55;;;;;;;15.32;6.80;;;15.80;74.00;;;;;;5009702;28;20415;-75
2022/05/09 08:29:21;;;;;;;16.40;7.00;;;15.90;74.30;;;;;;5006790;28;20018;-76
2022/05/09 08:31:47;;;;;;;17.92;7.00;;;16.10;74.60;;;;;;5009372;28;20030;-75
2022/05/09 08:34:14;;;;;;;15.63;6.30;;;16.30;72.40;;;;;;5009472;28;20037;-76
2022/05/09 08:36:46;;;;;;;19.00;6.00;;;16.40;71.80;;;;;;5007610;28;20523;-76
2022/05/09 08:39:13;;;;;;;17.00;6.20;;;16.60;72.00;;;;;;5009249;28;20050;-76
2022/05/09 08:41:50;;;;;;;14.23;5.93;;;16.80;72.70;;;;;;5006325;28;20052;-75
2022/05/09 08:44:33;;;;;;;15.05;5.97;;;16.90;70.10;;;;;;5005260;28;20045;-76
2022/05/09 08:47:37;;;;;;;14.82;6.20;;;17.10;69.30;;;;;;5012860;28;20026;-76
2022/05/09 08:50:31;;;;;;;20.20;6.18;;;17.10;68.70;;;;;;4999220;28;20144;-76
2022/05/09 08:53:10;;;;;;;15.80;5.78;;;17.20;69.40;;;;;;5016264;28;20096;-76
2022/05/09 08:55:41;;;;;;;12.43;5.65;;;17.40;69.80;;;;;;5023434;28;20033;-77
2022/05/09 08:58:19;;;;;;;15.25;5.25;;;17.60;67.10;;;;;;5006872;28;20038;-76
2022/05/09 09:00:47;;;;;;;14.02;5.50;;;17.60;68.40;;;;;;5008662;28;20481;-76
2022/05/09 09:03:24;;;;;;;13.10;4.68;;;17.80;66.10;;;;;;5006255;28;20084;-75
2022/05/09 09:05:53;;;;;;;11.60;4.70;;;17.90;67.20;;;;;;5006467;28;20028;-77
2022/05/09 09:08:28;;;;;;;12.68;4.47;;;18.20;65.90;;;;;;5008257;28;20041;-75
2022/05/09 09:10:59;;;;;;;15.57;5.25;;;18.30;66.80;;;;;;5003505;28;20495;-75
2022/05/09 09:13:31;;;;;;;13.95;5.00;;;18.50;64.80;;;;;;5008208;28;20042;-75
2022/05/09 09:16:26;;;;;;;9.85;4.15;;;18.60;66.00;;;;;;5007834;28;20050;-76
2022/05/09 09:19:21;;;;;;;11.00;4.18;;;18.70;59.00;;;;;;5028294;28;20029;-76
2022/05/09 09:21:59;;;;;;;10.23;4.10;;;18.90;59.20;;;;;;5007412;28;20087;-75
2022/05/09 09:24:38;;;;;;;12.60;4.43;;;19.10;58.30;;;;;;5008134;28;20083;-75
2022/05/09 09:27:13;;;;;;;8.93;4.15;;;19.30;60.10;;;;;;5034060;28;20054;-75
2022/05/09 09:29:50;;;;;;;11.15;4.20;;;19.50;58.20;;;;;;5039523;28;20034;-75
2022/05/09 09:32:19;;;;;;;10.45;3.88;;;19.60;57.60;;;;;;5005118;28;20042;-75
2022/05/09 09:35:06;;;;;;;11.95;4.78;;;19.60;57.10;;;;;;5007019;28;20034;-75
2022/05/09 09:37:31;;;;;;;14.45;4.38;;;19.60;55.30;;;;;;5036048;28;20381;-75
2022/05/09 09:39:57;;;;;;;11.55;4.72;;;19.60;55.00;;;;;;5007636;28;20037;-75
2022/05/09 09:42:23;;;;;;;14.30;4.72;;;19.50;55.40;;;;;;5006164;28;20579;-73
2022/05/09 09:44:51;;;;;;;9.27;4.20;;;19.60;54.90;;;;;;5005597;28;20806;-75
2022/05/09 09:47:20;;;;;;;11.40;4.30;;;19.70;54.70;;;;;;5005958;28;20120;-77
2022/05/09 09:49:48;;;;;;;10.80;4.40;;;19.80;53.70;;;;;;5006774;28;20101;-74
2022/05/09 09:52:21;;;;;;;12.50;4.22;;;19.90;54.20;;;;;;5004796;28;20604;-76
2022/05/09 09:55:10;;;;;;;11.20;4.43;;;20.10;55.20;;;;;;5005920;28;20038;-76
2022/05/09 09:57:37;;;;;;;10.38;4.90;;;20.20;54.10;;;;;;5014466;28;20038;-75
2022/05/09 10:00:15;;;;;;;11.15;4.20;;;20.40;54.60;;;;;;5006363;28;20050;-76
2022/05/09 10:02:41;;;;;;;13.65;4.47;;;20.40;52.90;;;;;;4996348;28;20092;-76
2022/05/09 10:05:15;;;;;;;9.98;4.63;;;20.50;54.90;;;;;;5008055;28;20041;-76
2022/05/09 10:07:45;;;;;;;9.90;4.35;;;20.60;53.10;;;;;;5008863;28;20052;-76
2022/05/09 10:10:15;;;;;;;11.35;4.30;;;20.70;53.90;;;;;;5022777;28;20037;-77
2022/05/09 10:12:48;;;;;;;11.80;4.88;;;20.70;53.10;;;;;;5008280;28;20543;-76
2022/05/09 10:15:20;;;;;;;13.57;4.40;;;20.60;52.40;;;;;;5010550;28;20427;-76
2022/05/09 10:17:46;;;;;;;10.55;4.70;;;20.50;52.60;;;;;;5010692;28;20135;-77
2022/05/09 10:20:39;;;;;;;10.40;4.30;;;20.40;51.30;;;;;;5011921;28;20034;-76
2022/05/09 10:26:20;;;;;;;13.88;5.15;;;20.60;53.60;;;;;;5007815;28;20036;-76
2022/05/09 10:28:49;;;;;;;11.82;4.55;;;20.80;53.50;;;;;;4998785;28;20038;-77
2022/05/09 10:31:24;;;;;;;13.68;4.80;;;20.80;52.10;;;;;;5022116;28;20113;-77
2022/05/09 10:34:03;;;;;;;12.93;5.03;;;21.00;53.70;;;;;;5006384;28;20084;-76
2022/05/09 10:36:44;;;;;;;15.70;5.55;;;21.00;50.60;;;;;;5003068;28;20037;-75
2022/05/09 10:39:33;;;;;;;10.85;4.90;;;20.90;52.10;;;;;;5004295;28;20038;-75
2022/05/09 10:42:22;;;;;;;10.77;4.82;;;20.90;52.30;;;;;;5004932;28;20068;-75
2022/05/09 10:44:54;;;;;;;10.85;5.50;;;21.00;53.90;;;;;;4991912;28;20431;-76
2022/05/09 10:47:25;;;;;;;13.55;5.63;;;21.00;53.70;;;;;;5004250;28;20026;-76
2022/05/09 10:50:09;;;;;;;12.85;5.47;;;21.00;54.10;;;;;;5004209;28;20034;-77
2022/05/09 10:52:41;;;;;;;9.68;5.03;;;21.00;52.90;;;;;;5007998;28;20025;-76
2022/05/09 10:55:27;;;;;;;12.80;5.22;;;21.10;54.50;;;;;;5042894;28;20034;-76
2022/05/09 10:58:26;;;;;;;12.13;5.90;;;21.20;51.80;;;;;;5010940;28;20484;-76
2022/05/09 11:01:09;;;;;;;12.60;5.50;;;21.30;52.50;;;;;;5009461;28;20801;-77
2022/05/09 11:03:37;;;;;;;12.07;5.38;;;21.30;53.40;;;;;;5011139;28;20049;-76
2022/05/09 11:06:24;;;;;;;11.88;4.85;;;21.20;52.00;;;;;;5011202;28;20022;-76
2022/05/09 11:09:10;;;;;;;12.95;5.95;;;21.20;52.00;;;;;;5006025;28;20034;-76
2022/05/09 11:11:41;;;;;;;11.05;5.93;;;21.10;52.60;;;;;;4991257;28;20022;-75
2022/05/09 11:14:26;;;;;;;16.83;5.90;;;21.60;51.90;;;;;;4990975;28;20053;-75
2022/05/09 11:17:20;;;;;;;14.95;5.85;;;21.90;51.90;;;;;;4990896;28;20068;-75
2022/05/09 11:20:07;;;;;;;15.43;5.43;;;22.10;51.00;;;;;;4991001;28;20027;-75
2022/05/09 11:22:45;;;;;;;12.85;5.30;;;23.10;50.90;;;;;;4993485;28;20026;-75
2022/05/09 11:25:44;;;;;;;13.93;6.25;;;23.40;48.90;;;;;;5025025;28;20045;-76
2022/05/09 11:28:19;;;;;;;11.93;5.45;;;22.70;48.30;;;;;;4990992;28;20023;-75
2022/05/09 11:31:05;;;;;;;13.48;6.25;;;22.60;51.10;;;;;;5036366;28;20435;-75
2022/05/09 11:33:59;;;;;;;14.10;6.97;;;22.30;50.60;;;;;;5010501;28;20038;-74
2022/05/09 11:36:49;;;;;;;10.70;6.28;;;22.40;50.10;;;;;;5000200;28;20042;-75
2022/05/09 11:39:27;;;;;;;13.15;6.72;;;22.10;49.60;;;;;;5010277;28;20028;-74
2022/05/09 11:45:28;;;;;;;13.15;5.63;;;21.50;49.90;;;;;;4990538;28;20042;-77
2022/05/09 11:48:08;;;;;;;12.40;6.40;;;21.40;52.40;;;;;;5032608;28;20095;-75
2022/05/09 11:51:01;;;;;;;16.02;6.95;;;21.10;52.10;;;;;;5010061;28;20038;-78
2022/05/09 11:53:31;;;;;;;12.52;6.05;;;20.90;53.40;;;;;;5024833;28;20069;-75
2022/05/09 11:55:58;;;;;;;14.38;7.00;;;20.70;54.30;;;;;;5010070;28;20487;-76
2022/05/09 11:58:25;;;;;;;13.80;5.97;;;20.60;55.50;;;;;;5009845;28;20026;-76
2022/05/09 12:00:53;;;;;;;13.57;6.75;;;20.70;55.40;;;;;;4992426;28;20026;-75
2022/05/09 12:03:40;;;;;;;14.27;6.78;;;20.80;54.60;;;;;;5009713;28;20034;-76
2022/05/09 12:06:26;;;;;;;12.63;7.20;;;20.90;54.80;;;;;;5003318;28;20759;-75
2022/05/09 12:08:53;;;;;;;11.93;6.28;;;21.00;54.00;;;;;;5009498;28;20034;-75
2022/05/09 12:11:29;;;;;;;10.75;6.22;;;21.20;53.10;;;;;;5023614;28;20094;-76
2022/05/09 12:13:57;;;;;;;12.82;6.97;;;21.00;53.50;;;;;;5004408;28;20042;-75
2022/05/09 12:16:39;;;;;;;12.18;7.00;;;21.00;54.40;;;;;;5005901;28;20125;-73
2022/05/09 12:19:20;;;;;;;12.68;6.25;;;21.30;53.10;;;;;;4997006;28;20026;-75
2022/05/09 12:22:15;;;;;;;12.45;7.38;;;21.50;52.80;;;;;;5003589;28;20479;-77
2022/05/09 12:24:42;;;;;;;14.82;7.57;;;21.60;51.50;;;;;;5006965;28;20487;-76
2022/05/09 12:27:44;;;;;;;16.45;7.03;;;21.40;52.90;;;;;;5004529;28;20053;-75
2022/05/09 12:30:40;;;;;;;13.18;7.30;;;21.40;53.00;;;;;;5004618;28;20058;-76
2022/05/09 12:33:31;;;;;;;14.07;8.10;;;22.00;51.70;;;;;;4997596;28;20041;-73
2022/05/09 12:36:07;;;;;;;14.82;8.18;;;22.40;51.10;;;;;;4989631;28;20034;-72
2022/05/09 12:38:36;;;;;;;14.90;7.78;;;22.10;49.40;;;;;;5011941;28;20140;-71
2022/05/09 12:41:24;;;;;;;11.88;7.93;;;22.40;51.70;;;;;;5005978;28;20045;-75
2022/05/09 12:43:58;;;;;;;14.02;7.82;;;22.00;50.30;;;;;;5005950;28;20053;-75
2022/05/09 12:46:29;;;;;;;13.60;8.02;;;21.80;51.90;;;;;;5006164;28;20037;-74
2022/05/09 12:49:02;;;;;;;12.85;7.57;;;21.90;51.40;;;;;;5029826;28;20034;-75
2022/05/09 12:51:31;;;;;;;15.38;7.75;;;21.70;52.70;;;;;;5000915;28;20064;-75
2022/05/09 12:53:58;;;;;;;13.48;8.10;;;21.60;52.50;;;;;;5007876;28;20407;-74
2022/05/09 12:56:27;;;;;;;14.50;7.32;;;21.50;52.30;;;;;;5000558;28;20040;-75
2022/05/09 12:59:03;;;;;;;12.95;7.72;;;21.20;53.20;;;;;;5023993;28;20108;-74
2022/05/09 13:01:30;;;;;;;14.48;7.20;;;21.30;53.10;;;;;;5009008;28;20038;-75
2022/05/09 13:03:58;;;;;;;11.95;7.05;;;21.30;52.70;;;;;;5003979;28;20026;-75
2022/05/09 13:06:27;;;;;;;14.10;7.60;;;21.20;54.00;;;;;;5006663;28;20073;-75
2022/05/09 13:08:53;;;;;;;14.10;8.00;;;21.40;53.10;;;;;;5039029;28;20026;-74
2022/05/09 13:11:28;;;;;;;13.60;7.93;;;21.40;52.40;;;;;;5034586;28;20080;-75